Time;durP1;ratioP1;P1;durP2;ratioP2;P2;SDS_P1;SDS_P2;PMS_P1;PMS_P2;Temp;Humidity;BMP_temperature;BMP_pressure;BME280_temperature;BME280_humidity;BME280_pressure;Samples;Min_cycle;Max_cycle;Signal;HPM_P1;HPM_P2
2022/03/11 00:00:33;;;;;;;8.25;6.20;;;6.00;20.20;;;;;;5033878;28;20573;-77
2022/03/11 00:03:00;;;;;;;11.32;6.65;;;6.00;19.80;;;;;;5034841;28;20233;-74
2022/03/11 00:05:28;;;;;;;9.90;7.28;;;6.00;19.90;;;;;;5034686;28;20327;-77
2022/03/11 00:07:56;;;;;;;10.55;7.13;;;6.00;19.80;;;;;;5034774;28;20202;-75
2022/03/11 00:10:23;;;;;;;11.57;7.03;;;6.00;20.10;;;;;;5034558;28;20320;-77
2022/03/11 00:12:50;;;;;;;9.82;6.57;;;6.00;19.90;;;;;;5033636;28;20213;-74
2022/03/11 00:15:17;;;;;;;12.02;6.90;;;6.00;20.10;;;;;;5034447;28;20304;-75
2022/03/11 00:17:44;;;;;;;9.20;6.03;;;6.00;19.90;;;;;;5034678;28;20216;-76
2022/03/11 00:20:11;;;;;;;9.82;6.22;;;6.00;19.80;;;;;;5036592;28;20632;-74
2022/03/11 00:22:38;;;;;;;9.52;5.45;;;6.10;19.80;;;;;;5042443;28;20319;-75
2022/03/11 00:25:09;;;;;;;10.68;6.55;;;6.10;19.90;;;;;;5038289;28;20634;-74
2022/03/11 00:27:36;;;;;;;10.90;6.13;;;6.10;19.80;;;;;;5034472;28;20288;-74
2022/03/11 00:30:03;;;;;;;13.15;6.30;;;6.10;19.80;;;;;;5033716;28;20694;-74
2022/03/11 00:32:30;;;;;;;9.18;5.28;;;6.00;19.80;;;;;;5033221;28;20218;-75
2022/03/11 00:34:57;;;;;;;9.40;6.18;;;6.00;19.80;;;;;;5033818;28;20268;-77
2022/03/11 00:37:24;;;;;;;11.27;6.13;;;5.90;20.10;;;;;;5034109;28;20216;-75
2022/03/11 00:39:51;;;;;;;9.27;6.13;;;5.90;20.00;;;;;;5034628;28;20202;-74
2022/03/11 00:42:19;;;;;;;7.72;5.55;;;5.90;19.70;;;;;;5035105;28;20304;-75
2022/03/11 00:44:46;;;;;;;11.15;6.05;;;5.90;19.90;;;;;;5033806;28;20257;-75
2022/03/11 00:47:13;;;;;;;10.48;6.28;;;6.00;19.80;;;;;;5034111;28;20339;-74
2022/03/11 00:49:43;;;;;;;9.57;5.30;;;6.00;19.80;;;;;;5035753;28;20202;-76
2022/03/11 00:52:10;;;;;;;10.07;5.43;;;6.00;19.80;;;;;;5035373;28;20209;-73
2022/03/11 00:54:37;;;;;;;8.18;5.93;;;6.00;20.10;;;;;;5036468;28;20341;-75
2022/03/11 00:57:04;;;;;;;8.00;5.20;;;6.00;19.90;;;;;;5039075;28;20213;-73
2022/03/11 00:59:33;;;;;;;12.55;6.82;;;6.00;20.20;;;;;;5034503;28;20291;-75
2022/03/11 01:02:00;;;;;;;6.47;5.38;;;5.90;20.30;;;;;;5034060;28;20292;-74
2022/03/11 01:04:27;;;;;;;10.63;6.13;;;6.00;20.70;;;;;;5038465;28;20316;-75
2022/03/11 01:06:54;;;;;;;8.23;5.25;;;6.00;20.50;;;;;;5038665;28;20288;-74
2022/03/11 01:09:21;;;;;;;13.32;6.32;;;5.90;21.00;;;;;;5038958;28;20325;-76
2022/03/11 01:11:48;;;;;;;7.90;5.40;;;5.90;21.10;;;;;;5040277;28;20226;-74
2022/03/11 01:14:15;;;;;;;9.35;6.47;;;5.80;21.30;;;;;;5042998;28;20255;-75
2022/03/11 01:16:43;;;;;;;10.00;6.22;;;5.80;21.20;;;;;;5049157;28;20274;-78
2022/03/11 01:19:11;;;;;;;9.85;6.10;;;5.70;21.70;;;;;;5054726;28;20201;-77
2022/03/11 01:21:38;;;;;;;7.78;5.57;;;5.70;21.90;;;;;;5054572;28;20204;-74
2022/03/11 01:24:05;;;;;;;9.13;6.85;;;5.70;22.00;;;;;;5043191;28;20236;-76
2022/03/11 01:26:32;;;;;;;10.27;6.15;;;5.60;22.00;;;;;;5037882;28;20210;-75
2022/03/11 01:28:59;;;;;;;8.60;5.78;;;5.70;22.10;;;;;;5038000;28;20271;-75
2022/03/11 01:31:26;;;;;;;10.68;7.07;;;5.60;22.30;;;;;;5037918;28;20272;-74
2022/03/11 01:33:55;;;;;;;11.25;5.57;;;5.50;22.80;;;;;;5038455;28;20255;-75
2022/03/11 01:36:22;;;;;;;8.77;5.53;;;5.40;22.90;;;;;;5038692;28;20205;-77
2022/03/11 01:38:48;;;;;;;8.18;5.47;;;5.40;23.10;;;;;;5038803;28;20210;-74
2022/03/11 01:41:15;;;;;;;7.65;6.43;;;5.50;23.20;;;;;;5038873;28;20217;-75
2022/03/11 01:43:58;;;;;;;9.93;6.70;;;5.50;23.20;;;;;;5039070;28;20264;-74
2022/03/11 01:46:25;;;;;;;8.60;6.25;;;5.40;23.40;;;;;;5043444;28;20205;-78
2022/03/11 01:48:53;;;;;;;8.50;5.65;;;5.40;23.40;;;;;;5047550;28;20244;-75
2022/03/11 01:51:21;;;;;;;10.65;6.80;;;5.40;23.50;;;;;;5048100;28;20231;-75
2022/03/11 01:53:48;;;;;;;11.88;6.15;;;5.40;23.70;;;;;;5085051;22;20232;-79
2022/03/11 01:56:15;;;;;;;11.52;6.70;;;5.30;24.00;;;;;;5037864;28;20299;-79
2022/03/11 01:58:42;;;;;;;9.18;7.22;;;5.30;24.30;;;;;;5038299;28;20210;-79
2022/03/11 02:01:10;;;;;;;9.45;6.35;;;5.30;24.50;;;;;;5038017;28;20228;-80
2022/03/11 02:03:37;;;;;;;11.93;6.70;;;5.30;24.80;;;;;;5038510;28;20232;-79
2022/03/11 02:06:26;;;;;;;8.55;6.60;;;5.20;25.00;;;;;;5050460;28;20203;-79
2022/03/11 02:08:54;;;;;;;11.07;7.15;;;5.30;25.20;;;;;;5056434;28;20205;-80
2022/03/11 02:11:22;;;;;;;12.52;7.13;;;5.30;25.30;;;;;;5043617;28;20251;-79
2022/03/11 02:13:51;;;;;;;10.63;7.55;;;5.10;25.80;;;;;;5043624;28;20252;-79
2022/03/11 02:16:19;;;;;;;11.55;7.45;;;5.20;26.00;;;;;;5044468;28;20235;-80
2022/03/11 02:18:47;;;;;;;10.15;7.40;;;5.20;26.10;;;;;;5045251;28;20205;-79
2022/03/11 02:21:17;;;;;;;11.85;8.02;;;5.10;26.60;;;;;;5041149;28;20215;-80
2022/03/11 02:23:47;;;;;;;11.27;7.88;;;5.10;27.70;;;;;;5039287;28;20274;-79
2022/03/11 02:26:14;;;;;;;11.93;7.57;;;5.10;27.10;;;;;;5037630;28;20208;-79
2022/03/11 02:28:41;;;;;;;9.35;7.22;;;5.10;27.10;;;;;;5037372;28;20240;-79
2022/03/11 02:31:09;;;;;;;14.25;8.30;;;5.10;27.10;;;;;;5037423;28;20260;-79
2022/03/11 02:33:36;;;;;;;13.00;8.20;;;5.00;27.10;;;;;;5039989;28;20323;-79
2022/03/11 02:36:03;;;;;;;15.35;8.80;;;5.00;27.10;;;;;;5048717;28;20236;-79
2022/03/11 02:38:31;;;;;;;13.02;8.77;;;5.00;27.10;;;;;;5050974;28;20220;-79
2022/03/11 02:40:59;;;;;;;14.80;9.27;;;4.90;27.80;;;;;;5045731;28;20206;-78
2022/03/11 02:43:26;;;;;;;14.43;9.20;;;4.90;28.10;;;;;;5045670;28;20229;-80
2022/03/11 02:45:54;;;;;;;11.40;8.27;;;4.90;28.10;;;;;;5047270;28;20673;-78
2022/03/11 02:48:21;;;;;;;16.15;9.60;;;4.80;28.30;;;;;;5049131;28;20216;-79
2022/03/11 02:50:50;;;;;;;16.90;10.00;;;4.90;28.40;;;;;;5050017;28;20225;-79
2022/03/11 02:53:17;;;;;;;17.80;9.50;;;4.90;28.70;;;;;;5049134;28;20279;-78
2022/03/11 02:55:44;;;;;;;17.23;10.52;;;4.80;28.70;;;;;;5045350;28;20201;-79
2022/03/11 02:58:12;;;;;;;14.40;9.85;;;4.70;28.80;;;;;;5038340;28;20210;-80
2022/03/11 03:00:39;;;;;;;12.30;8.77;;;4.70;28.90;;;;;;5041253;28;20214;-79
2022/03/11 03:03:06;;;;;;;14.10;9.85;;;4.70;29.00;;;;;;5044168;28;20295;-78
2022/03/11 03:05:33;;;;;;;14.65;9.40;;;4.70;29.00;;;;;;5044411;28;20305;-79
2022/03/11 03:08:01;;;;;;;13.27;8.57;;;4.60;29.20;;;;;;5042977;28;20220;-79
2022/03/11 03:10:28;;;;;;;12.40;9.40;;;4.70;29.20;;;;;;5042477;28;20214;-79
2022/03/11 03:12:55;;;;;;;13.35;9.40;;;4.80;29.20;;;;;;5042637;28;20271;-79
2022/03/11 03:15:23;;;;;;;14.45;9.82;;;4.70;29.90;;;;;;5046823;28;20223;-80
2022/03/11 03:17:50;;;;;;;14.05;10.73;;;4.60;29.80;;;;;;5045241;28;20211;-80
2022/03/11 03:20:17;;;;;;;18.02;10.60;;;4.60;30.00;;;;;;5047730;28;20205;-78
2022/03/11 03:22:44;;;;;;;12.75;9.70;;;4.50;30.30;;;;;;5036906;28;20208;-79
2022/03/11 03:25:11;;;;;;;16.08;10.07;;;4.50;30.70;;;;;;5036016;28;20323;-79
2022/03/11 03:27:38;;;;;;;17.00;11.00;;;4.40;30.60;;;;;;5036658;28;20671;-78
2022/03/11 03:30:06;;;;;;;15.95;11.32;;;4.30;30.90;;;;;;5037448;28;20204;-79
2022/03/11 03:32:34;;;;;;;13.18;9.63;;;4.30;31.30;;;;;;5037458;28;20278;-79
2022/03/11 03:35:01;;;;;;;17.13;10.18;;;4.20;31.60;;;;;;5038986;28;20603;-79
2022/03/11 03:37:28;;;;;;;18.30;11.75;;;4.20;31.80;;;;;;5037098;28;20205;-78
2022/03/11 03:39:55;;;;;;;15.57;10.75;;;4.20;31.70;;;;;;5037211;28;20243;-79
2022/03/11 03:42:22;;;;;;;17.35;11.00;;;4.20;31.80;;;;;;5037542;28;20277;-79
2022/03/11 03:44:49;;;;;;;18.05;10.85;;;4.10;32.00;;;;;;5037040;28;20307;-79
2022/03/11 03:47:16;;;;;;;16.98;11.27;;;4.10;32.10;;;;;;5037510;28;20215;-79
2022/03/11 03:49:44;;;;;;;19.45;10.80;;;4.10;32.10;;;;;;5036003;28;20205;-78
2022/03/11 03:52:12;;;;;;;17.20;11.70;;;4.10;32.20;;;;;;5035552;28;20281;-79
2022/03/11 03:54:39;;;;;;;18.42;11.52;;;4.10;32.00;;;;;;5036630;28;20279;-79
2022/03/11 03:57:07;;;;;;;13.80;10.02;;;4.10;33.10;;;;;;5036229;28;20220;-79
2022/03/11 03:59:34;;;;;;;18.95;12.65;;;4.00;32.50;;;;;;5036453;28;20240;-79
2022/03/11 04:02:02;;;;;;;20.70;10.93;;;4.00;32.80;;;;;;5036116;28;20211;-79
2022/03/11 04:04:29;;;;;;;18.35;11.20;;;4.00;32.60;;;;;;5036730;28;20229;-79
2022/03/11 04:06:57;;;;;;;16.73;11.05;;;3.90;32.60;;;;;;5039955;28;20223;-79
2022/03/11 04:09:24;;;;;;;16.90;11.60;;;3.90;33.70;;;;;;5039043;28;20232;-80
2022/03/11 04:11:51;;;;;;;21.27;11.85;;;3.90;32.80;;;;;;5041303;28;20259;-79
2022/03/11 04:14:18;;;;;;;17.23;11.50;;;3.90;33.10;;;;;;5043518;28;20232;-79
2022/03/11 04:16:45;;;;;;;18.38;11.70;;;3.90;33.20;;;;;;5044096;28;20208;-82
2022/03/11 04:19:12;;;;;;;15.88;10.95;;;3.80;33.50;;;;;;5042424;28;20195;-79
2022/03/11 04:21:39;;;;;;;18.48;11.43;;;3.70;33.70;;;;;;5045790;28;20299;-79
2022/03/11 04:24:13;;;;;;;20.15;12.27;;;3.70;33.70;;;;;;5047127;28;20722;-80
2022/03/11 04:26:41;;;;;;;18.92;11.60;;;3.70;34.20;;;;;;5046792;28;20238;-79
2022/03/11 04:29:08;;;;;;;17.65;10.90;;;3.70;34.10;;;;;;5050884;28;20219;-79
2022/03/11 04:31:35;;;;;;;19.13;12.40;;;3.60;34.60;;;;;;5049739;28;20228;-79
2022/03/11 04:34:04;;;;;;;19.92;12.50;;;3.60;34.30;;;;;;5048027;28;20257;-79
2022/03/11 04:36:33;;;;;;;19.83;12.23;;;3.60;34.90;;;;;;5047147;28;20272;-80
2022/03/11 04:39:00;;;;;;;18.27;12.27;;;3.60;34.90;;;;;;5052401;28;20287;-80
2022/03/11 04:41:29;;;;;;;20.92;13.18;;;3.60;34.90;;;;;;5048551;28;20202;-79
2022/03/11 04:43:56;;;;;;;23.33;13.82;;;3.50;34.80;;;;;;5050176;28;20739;-79
2022/03/11 04:46:23;;;;;;;18.40;11.80;;;3.50;34.80;;;;;;5050898;28;20671;-81
2022/03/11 04:48:50;;;;;;;23.77;14.02;;;3.50;34.80;;;;;;5050921;28;20210;-80
2022/03/11 04:51:17;;;;;;;23.88;13.90;;;3.40;34.70;;;;;;5050083;28;20228;-80
2022/03/11 04:53:44;;;;;;;21.25;13.25;;;3.40;34.70;;;;;;5043605;28;20373;-79
2022/03/11 04:56:11;;;;;;;21.00;13.63;;;3.40;34.80;;;;;;5051780;28;20620;-79
2022/03/11 04:58:39;;;;;;;22.17;12.73;;;3.30;34.70;;;;;;5051556;28;20203;-79
2022/03/11 05:01:07;;;;;;;21.33;12.95;;;3.30;34.70;;;;;;5050982;28;20247;-79
2022/03/11 05:03:34;;;;;;;20.23;13.30;;;3.30;34.70;;;;;;5050205;28;20223;-79
2022/03/11 05:06:01;;;;;;;20.55;13.27;;;3.40;34.70;;;;;;5049099;28;20212;-79
2022/03/11 05:08:28;;;;;;;18.02;12.27;;;3.20;34.90;;;;;;5047519;28;20235;-80
2022/03/11 05:10:56;;;;;;;21.13;12.50;;;3.20;35.00;;;;;;5048298;28;20299;-79
2022/03/11 05:13:23;;;;;;;22.20;14.05;;;3.20;35.00;;;;;;5048028;28;20301;-78
2022/03/11 05:15:51;;;;;;;17.25;12.60;;;3.20;35.40;;;;;;5048565;28;20403;-79
2022/03/11 05:18:18;;;;;;;25.30;13.68;;;3.10;35.40;;;;;;5050246;28;20214;-80
2022/03/11 05:20:45;;;;;;;24.30;13.18;;;3.10;35.70;;;;;;5050066;28;20242;-80
2022/03/11 05:23:12;;;;;;;26.55;13.52;;;3.10;35.90;;;;;;5050951;28;20212;-79
2022/03/11 05:25:39;;;;;;;22.38;13.07;;;3.00;35.90;;;;;;5054704;28;20211;-78
2022/03/11 05:28:08;;;;;;;24.42;14.43;;;3.00;36.10;;;;;;5052009;28;20219;-79
2022/03/11 05:30:36;;;;;;;24.98;13.13;;;3.00;36.10;;;;;;5050310;28;20238;-79
2022/03/11 05:33:05;;;;;;;24.02;14.25;;;3.00;36.10;;;;;;5049963;28;20231;-79
2022/03/11 05:35:32;;;;;;;20.40;13.50;;;2.90;36.40;;;;;;5042185;28;20210;-79
2022/03/11 05:37:59;;;;;;;22.73;14.38;;;2.90;36.40;;;;;;5047498;28;20204;-79
2022/03/11 05:40:26;;;;;;;20.02;13.55;;;3.00;36.40;;;;;;5054550;28;20261;-78
2022/03/11 05:42:53;;;;;;;21.38;12.82;;;2.90;36.40;;;;;;5054762;28;20210;-79
2022/03/11 05:45:20;;;;;;;21.23;13.65;;;2.90;36.50;;;;;;5054295;28;20233;-79
2022/03/11 05:47:47;;;;;;;19.42;12.60;;;2.80;36.70;;;;;;5052488;28;20211;-79
2022/03/11 05:50:16;;;;;;;18.20;12.43;;;2.90;36.60;;;;;;5050609;28;20204;-79
2022/03/11 05:52:44;;;;;;;23.23;13.55;;;2.90;36.80;;;;;;5050305;28;20227;-80
2022/03/11 05:55:12;;;;;;;20.20;13.35;;;2.90;36.80;;;;;;5050114;28;20258;-79
2022/03/11 05:57:39;;;;;;;21.80;13.50;;;2.90;36.60;;;;;;5049053;28;20216;-79
2022/03/11 06:00:07;;;;;;;21.88;14.30;;;2.90;36.70;;;;;;5050983;28;20291;-80
2022/03/11 06:02:38;;;;;;;20.80;12.32;;;2.80;37.00;;;;;;5048233;28;20209;-80
2022/03/11 06:05:06;;;;;;;22.95;13.88;;;2.80;37.10;;;;;;5048588;28;20291;-79
2022/03/11 06:07:34;;;;;;;24.23;13.57;;;2.70;37.10;;;;;;5048071;28;20214;-79
2022/03/11 06:10:01;;;;;;;21.10;13.93;;;2.80;37.10;;;;;;5047715;28;20624;-79
2022/03/11 06:12:28;;;;;;;22.67;13.60;;;2.80;37.00;;;;;;5049725;28;20223;-79
2022/03/11 06:14:55;;;;;;;21.15;14.27;;;2.90;37.00;;;;;;5051595;28;20669;-78
2022/03/11 06:17:21;;;;;;;25.40;15.40;;;2.80;37.00;;;;;;5052532;28;20303;-80
2022/03/11 06:19:48;;;;;;;23.48;13.25;;;2.80;37.10;;;;;;5050158;28;20302;-79
2022/03/11 06:22:16;;;;;;;22.15;14.02;;;2.90;36.90;;;;;;5048341;28;20213;-80
2022/03/11 06:24:44;;;;;;;27.60;14.25;;;2.90;36.90;;;;;;5039097;28;20226;-79
2022/03/11 06:27:11;;;;;;;21.60;14.32;;;2.90;36.60;;;;;;5054036;28;20215;-79
2022/03/11 06:29:38;;;;;;;23.15;13.15;;;3.00;36.70;;;;;;5055370;28;20192;-80
2022/03/11 06:32:05;;;;;;;25.13;15.05;;;3.00;36.60;;;;;;5055973;28;20229;-79
2022/03/11 06:34:33;;;;;;;21.52;14.00;;;3.00;36.50;;;;;;5055126;28;20286;-78
2022/03/11 06:37:00;;;;;;;24.33;14.45;;;3.00;36.40;;;;;;5055700;28;20215;-79
2022/03/11 06:39:27;;;;;;;19.52;12.95;;;3.10;36.30;;;;;;5056212;28;20299;-79
2022/03/11 06:41:55;;;;;;;22.25;13.98;;;3.10;36.30;;;;;;5052744;28;20228;-79
2022/03/11 06:44:22;;;;;;;26.50;14.25;;;3.20;36.20;;;;;;5049460;28;20227;-80
2022/03/11 06:46:49;;;;;;;23.02;13.95;;;3.20;35.80;;;;;;5050298;28;20296;-79
2022/03/11 06:49:16;;;;;;;27.80;14.43;;;3.30;35.40;;;;;;5049862;28;20235;-79
2022/03/11 06:51:43;;;;;;;21.85;13.57;;;3.30;35.50;;;;;;5049236;28;20208;-79
2022/03/11 06:54:10;;;;;;;22.70;13.85;;;3.40;35.40;;;;;;5039714;28;20247;-79
2022/03/11 06:56:37;;;;;;;21.45;14.30;;;3.40;34.70;;;;;;5038102;28;20274;-78
2022/03/11 06:59:06;;;;;;;27.02;14.23;;;3.50;34.80;;;;;;5038958;28;20212;-80
2022/03/11 07:01:33;;;;;;;22.40;13.95;;;3.50;34.80;;;;;;5042080;28;20207;-81
2022/03/11 07:04:01;;;;;;;23.30;14.15;;;3.60;34.90;;;;;;5048928;28;20239;-81
2022/03/11 07:06:28;;;;;;;22.23;14.05;;;3.60;34.90;;;;;;5047734;28;20216;-79
2022/03/11 07:08:55;;;;;;;21.95;13.40;;;3.70;35.00;;;;;;5044386;28;20270;-79
2022/03/11 07:11:22;;;;;;;20.77;13.55;;;3.80;35.10;;;;;;5047211;28;20603;-78
2022/03/11 07:13:49;;;;;;;23.38;14.52;;;3.90;35.20;;;;;;5039247;28;20227;-79
2022/03/11 07:16:18;;;;;;;18.27;12.57;;;3.90;34.70;;;;;;5042912;28;20238;-79
2022/03/11 07:18:44;;;;;;;23.45;13.82;;;3.90;34.70;;;;;;5040761;28;20308;-79
2022/03/11 07:21:11;;;;;;;23.65;14.13;;;4.00;34.30;;;;;;5038244;28;20280;-79
2022/03/11 07:23:39;;;;;;;24.88;15.68;;;4.10;33.90;;;;;;5050733;28;20225;-79
2022/03/11 07:26:05;;;;;;;17.58;12.88;;;4.10;33.50;;;;;;5054242;28;20304;-79
2022/03/11 07:28:32;;;;;;;19.88;13.25;;;4.10;33.40;;;;;;5069771;28;20208;-78
2022/03/11 07:31:01;;;;;;;22.13;12.80;;;4.20;33.10;;;;;;5070795;28;20216;-79
2022/03/11 07:33:29;;;;;;;22.27;13.00;;;4.20;33.10;;;;;;5063700;28;20236;-79
2022/03/11 07:35:56;;;;;;;22.60;12.50;;;4.30;33.00;;;;;;5053257;28;20205;-79
2022/03/11 07:38:30;;;;;;;18.02;12.75;;;4.40;32.50;;;;;;5047286;28;20205;-78
2022/03/11 07:40:58;;;;;;;19.85;12.65;;;4.40;32.20;;;;;;5064900;28;20210;-79
2022/03/11 07:43:25;;;;;;;19.63;12.85;;;4.50;32.50;;;;;;5052036;28;20235;-79
2022/03/11 07:45:53;;;;;;;29.45;13.52;;;4.60;32.90;;;;;;5046623;28;20201;-78
2022/03/11 07:48:20;;;;;;;23.38;13.20;;;4.70;32.30;;;;;;5049966;28;20217;-79
2022/03/11 07:50:48;;;;;;;17.33;12.07;;;4.70;31.70;;;;;;5048154;28;20277;-78
2022/03/11 07:55:52;;;;;;;22.55;14.25;;;4.90;31.10;;;;;;5050139;28;20210;-74
2022/03/11 07:58:21;;;;;;;21.67;13.10;;;4.90;30.90;;;;;;5040635;28;20232;-75
2022/03/11 08:00:48;;;;;;;23.55;12.95;;;5.00;30.70;;;;;;5035963;28;20308;-75
2022/03/11 08:03:15;;;;;;;21.33;12.73;;;5.10;30.70;;;;;;5036207;28;20200;-75
2022/03/11 08:05:42;;;;;;;18.38;12.68;;;5.20;30.20;;;;;;5020072;28;20636;-74
2022/03/11 08:08:11;;;;;;;17.27;12.27;;;5.00;30.50;;;;;;5020906;28;20641;-76
2022/03/11 08:10:38;;;;;;;22.00;12.55;;;5.10;30.20;;;;;;5019339;28;20210;-75
2022/03/11 08:13:06;;;;;;;16.88;12.88;;;5.20;29.90;;;;;;5015760;28;20226;-77
2022/03/11 08:15:36;;;;;;;18.83;12.90;;;5.30;29.60;;;;;;5001083;28;20234;-77
2022/03/11 08:18:04;;;;;;;21.70;14.05;;;5.40;29.60;;;;;;4997934;28;20215;-77
2022/03/11 08:20:31;;;;;;;19.92;12.48;;;5.50;29.50;;;;;;5015523;28;20236;-76
2022/03/11 08:22:59;;;;;;;19.75;12.25;;;5.70;29.20;;;;;;5018799;28;20214;-75
2022/03/11 08:25:27;;;;;;;22.67;12.85;;;5.80;29.10;;;;;;5021580;28;20226;-77
2022/03/11 08:27:55;;;;;;;18.13;12.45;;;5.90;28.50;;;;;;5023307;28;20789;-77
2022/03/11 08:30:26;;;;;;;18.92;12.80;;;5.90;28.10;;;;;;5028802;28;20272;-75
2022/03/11 08:32:55;;;;;;;19.40;13.20;;;6.00;28.00;;;;;;5030819;28;20222;-76
2022/03/11 08:35:22;;;;;;;22.83;13.50;;;6.10;27.80;;;;;;5027115;28;20297;-74
2022/03/11 08:37:49;;;;;;;20.27;12.27;;;6.20;27.90;;;;;;5020721;28;20236;-77
2022/03/11 08:40:22;;;;;;;20.67;12.68;;;6.10;27.80;;;;;;5009750;28;20297;-76
2022/03/11 08:42:51;;;;;;;19.48;13.38;;;5.90;27.70;;;;;;5015949;28;20194;-75
2022/03/11 08:45:20;;;;;;;19.48;12.93;;;6.10;27.90;;;;;;5018420;28;20262;-76
2022/03/11 08:47:47;;;;;;;19.90;13.27;;;6.10;27.90;;;;;;5005633;28;20298;-75
2022/03/11 08:50:14;;;;;;;16.60;12.13;;;6.20;27.90;;;;;;5019060;28;20241;-76
2022/03/11 08:52:41;;;;;;;21.08;12.55;;;6.30;26.90;;;;;;5021520;28;20218;-76
2022/03/11 08:55:09;;;;;;;16.15;11.40;;;6.30;27.20;;;;;;5017360;28;20337;-74
2022/03/11 08:57:37;;;;;;;18.75;10.30;;;6.50;26.80;;;;;;5019721;28;20238;-74
2022/03/11 09:00:07;;;;;;;16.30;11.38;;;6.60;26.20;;;;;;5023186;28;20254;-75
2022/03/11 09:02:37;;;;;;;19.15;12.68;;;6.80;25.90;;;;;;5015455;28;20211;-77
2022/03/11 09:05:05;;;;;;;18.13;12.35;;;6.90;25.40;;;;;;5009937;28;20312;-76
2022/03/11 09:07:32;;;;;;;15.50;11.23;;;6.80;25.40;;;;;;5016553;28;20305;-75
2022/03/11 09:10:00;;;;;;;16.15;11.30;;;6.80;25.70;;;;;;5015734;28;20264;-77
2022/03/11 09:12:26;;;;;;;17.60;10.48;;;7.00;25.60;;;;;;4995416;28;20219;-75
2022/03/11 09:14:53;;;;;;;20.23;11.50;;;7.20;25.10;;;;;;5011022;28;20226;-77
2022/03/11 09:17:22;;;;;;;22.58;11.20;;;7.20;24.60;;;;;;5014309;28;20207;-76
2022/03/11 09:19:49;;;;;;;17.90;11.02;;;7.20;25.00;;;;;;5021416;28;20238;-75
2022/03/11 09:22:17;;;;;;;19.33;12.05;;;7.40;24.70;;;;;;5022971;28;20279;-75
2022/03/11 09:24:44;;;;;;;21.20;11.75;;;7.60;24.30;;;;;;5029744;28;20242;-79
2022/03/11 09:27:12;;;;;;;17.98;12.48;;;7.80;24.20;;;;;;5022219;28;20216;-78
2022/03/11 09:29:40;;;;;;;20.73;11.15;;;7.90;24.00;;;;;;5019636;28;20736;-76
2022/03/11 09:32:08;;;;;;;17.70;12.45;;;7.90;23.80;;;;;;5005126;28;20216;-78
2022/03/11 09:34:37;;;;;;;16.80;11.30;;;8.10;23.70;;;;;;4999251;28;20240;-77
2022/03/11 09:37:05;;;;;;;15.75;10.80;;;8.30;23.50;;;;;;5008849;28;20294;-75
2022/03/11 09:39:32;;;;;;;17.25;11.20;;;8.40;23.00;;;;;;4997393;28;20614;-74
2022/03/11 09:41:59;;;;;;;17.67;12.50;;;8.40;23.50;;;;;;5002837;28;20203;-75
2022/03/11 09:44:26;;;;;;;18.77;12.00;;;8.40;23.30;;;;;;5018439;28;20232;-75
2022/03/11 09:46:54;;;;;;;18.10;10.93;;;8.40;23.40;;;;;;5017595;28;20208;-75
2022/03/11 09:49:20;;;;;;;16.75;10.63;;;8.40;23.90;;;;;;5018032;28;20212;-76
2022/03/11 09:51:49;;;;;;;17.80;12.32;;;8.50;23.10;;;;;;5019023;28;20213;-77
2022/03/11 09:54:16;;;;;;;22.85;11.15;;;8.60;23.00;;;;;;5018849;28;20722;-77
2022/03/11 09:56:45;;;;;;;17.90;10.90;;;8.70;22.70;;;;;;5020717;28;20232;-75
2022/03/11 09:59:13;;;;;;;33.22;13.18;;;8.90;22.60;;;;;;5023598;28;20261;-78
2022/03/11 10:01:41;;;;;;;15.30;11.25;;;8.80;22.50;;;;;;5035438;28;20208;-77
2022/03/11 10:04:09;;;;;;;16.90;12.40;;;8.80;22.60;;;;;;5029558;28;20683;-76
2022/03/11 10:06:40;;;;;;;16.83;11.45;;;9.00;22.10;;;;;;5013727;28;20209;-76
2022/03/11 10:09:30;;;;;;;19.95;11.52;;;9.20;21.90;;;;;;4999522;28;20267;-75
2022/03/11 10:11:57;;;;;;;18.90;12.07;;;9.20;21.90;;;;;;4998090;28;20216;-76
2022/03/11 10:14:29;;;;;;;18.38;11.50;;;9.20;21.90;;;;;;4996803;28;20239;-76
2022/03/11 10:16:56;;;;;;;19.15;11.20;;;9.00;21.80;;;;;;5004132;28;20208;-74
2022/03/11 10:19:23;;;;;;;16.25;11.85;;;9.00;21.80;;;;;;5016747;28;20208;-75
2022/03/11 10:21:50;;;;;;;18.52;11.90;;;9.30;22.00;;;;;;5016988;28;20230;-75
2022/03/11 10:24:20;;;;;;;15.85;10.50;;;9.50;22.10;;;;;;5018257;28;20262;-76
2022/03/11 10:26:48;;;;;;;15.10;10.30;;;9.60;22.20;;;;;;5009547;28;20269;-75
2022/03/11 10:29:17;;;;;;;20.08;11.82;;;9.30;22.00;;;;;;5011044;28;20208;-75
2022/03/11 10:31:45;;;;;;;18.05;11.50;;;9.40;22.10;;;;;;5014462;28;20205;-76
2022/03/11 10:34:13;;;;;;;14.73;10.55;;;9.40;22.10;;;;;;4998114;28;20232;-77
2022/03/11 10:36:47;;;;;;;17.23;11.82;;;9.50;22.10;;;;;;5002766;28;20211;-76
2022/03/11 10:39:15;;;;;;;16.08;10.95;;;9.90;21.30;;;;;;5017828;28;20224;-77
2022/03/11 10:41:43;;;;;;;18.23;11.52;;;9.90;21.10;;;;;;5017163;28;20238;-76
2022/03/11 10:44:12;;;;;;;23.17;12.88;;;10.00;20.10;;;;;;5017636;28;20254;-76
2022/03/11 10:46:39;;;;;;;17.90;11.57;;;10.00;20.20;;;;;;5016912;28;20219;-76
2022/03/11 10:49:06;;;;;;;23.92;12.55;;;9.90;21.10;;;;;;5017383;28;20213;-77
2022/03/11 10:51:35;;;;;;;18.63;12.15;;;9.90;21.10;;;;;;5009105;28;20339;-76
2022/03/11 10:54:04;;;;;;;16.63;11.10;;;10.20;20.10;;;;;;4996924;28;20375;-75
2022/03/11 10:56:34;;;;;;;16.42;11.40;;;10.40;20.40;;;;;;5005661;28;20208;-75
2022/03/11 10:59:07;;;;;;;18.27;12.38;;;10.40;19.60;;;;;;5001007;28;20205;-76
2022/03/11 11:01:39;;;;;;;17.85;10.98;;;10.50;19.30;;;;;;5013982;28;20214;-75
2022/03/11 11:04:08;;;;;;;17.33;11.43;;;10.50;19.60;;;;;;5016148;28;20240;-75
2022/03/11 11:06:36;;;;;;;19.30;12.55;;;10.50;19.50;;;;;;5015768;28;20583;-74
2022/03/11 11:09:04;;;;;;;18.15;11.25;;;10.40;19.60;;;;;;5017324;28;20215;-74
2022/03/11 11:11:32;;;;;;;21.17;11.93;;;10.60;19.50;;;;;;5018297;28;20673;-75
2022/03/11 11:14:00;;;;;;;17.67;11.10;;;10.90;19.20;;;;;;5012802;28;20232;-75
2022/03/11 11:16:29;;;;;;;15.80;10.90;;;11.10;19.00;;;;;;5023308;28;20215;-75
2022/03/11 11:18:59;;;;;;;17.45;11.90;;;11.20;18.90;;;;;;5026582;28;20298;-76
2022/03/11 11:21:27;;;;;;;19.77;11.70;;;11.30;18.80;;;;;;5022030;28;20311;-74
2022/03/11 11:23:56;;;;;;;15.70;11.40;;;11.40;18.60;;;;;;5018104;28;20635;-75
2022/03/11 11:26:24;;;;;;;16.17;11.15;;;11.20;18.30;;;;;;5021035;28;20606;-75
2022/03/11 11:28:53;;;;;;;16.58;11.05;;;11.20;18.60;;;;;;5020511;28;20306;-75
2022/03/11 11:31:21;;;;;;;16.77;11.35;;;11.10;18.40;;;;;;5007097;28;20196;-75
2022/03/11 11:33:50;;;;;;;15.30;11.30;;;11.20;18.50;;;;;;4996378;28;20240;-75
2022/03/11 11:36:36;;;;;;;18.80;11.40;;;11.30;17.90;;;;;;4996580;28;20299;-74
2022/03/11 11:39:05;;;;;;;20.30;10.80;;;11.40;18.10;;;;;;4996970;28;20236;-76
2022/03/11 11:41:33;;;;;;;15.82;10.23;;;11.50;17.80;;;;;;4995963;28;20208;-76
2022/03/11 11:44:02;;;;;;;17.23;11.60;;;11.40;17.70;;;;;;4997016;28;20228;-76
2022/03/11 11:46:30;;;;;;;15.70;10.48;;;11.60;17.90;;;;;;4996628;28;20208;-76
2022/03/11 11:49:12;;;;;;;15.30;10.57;;;11.50;17.50;;;;;;4996989;28;20209;-74
2022/03/11 11:52:04;;;;;;;20.35;10.25;;;11.60;17.40;;;;;;4996061;28;20199;-76
2022/03/11 11:54:37;;;;;;;13.02;9.70;;;11.80;17.00;;;;;;4997269;28;20232;-76
2022/03/11 11:57:05;;;;;;;13.30;9.90;;;11.90;17.10;;;;;;4999418;28;20251;-75
2022/03/11 11:59:36;;;;;;;19.27;10.82;;;12.00;16.60;;;;;;4998139;28;20217;-73
2022/03/11 12:02:22;;;;;;;17.67;10.20;;;12.10;16.80;;;;;;4997375;28;20212;-74
2022/03/11 12:04:51;;;;;;;16.65;9.85;;;12.30;16.30;;;;;;5011165;28;20224;-72
2022/03/11 12:07:18;;;;;;;17.73;10.38;;;12.40;16.00;;;;;;5023265;28;20216;-75
2022/03/11 12:09:54;;;;;;;19.90;10.93;;;12.50;16.20;;;;;;5032490;28;20271;-77
2022/03/11 12:13:05;;;;;;;17.13;10.70;;;12.40;16.20;;;;;;5037666;28;20215;-73
2022/03/11 12:15:34;;;;;;;17.38;11.18;;;12.20;15.80;;;;;;5032390;28;20235;-74
2022/03/11 12:18:02;;;;;;;15.77;10.07;;;12.20;15.70;;;;;;5029517;28;20192;-74
2022/03/11 12:20:45;;;;;;;22.15;10.32;;;12.50;15.50;;;;;;5019497;28;20232;-74
2022/03/11 12:23:18;;;;;;;18.52;9.38;;;12.60;15.40;;;;;;5016786;28;20669;-75
2022/03/11 12:25:48;;;;;;;17.05;9.80;;;12.60;15.30;;;;;;5016475;28;20203;-75
2022/03/11 12:28:17;;;;;;;13.80;10.35;;;12.70;16.00;;;;;;5019065;28;20204;-73
2022/03/11 12:30:54;;;;;;;17.90;11.20;;;12.70;15.40;;;;;;5025767;28;20212;-75
2022/03/11 12:33:23;;;;;;;15.40;10.20;;;12.70;15.40;;;;;;5026587;28;20196;-75
2022/03/11 12:35:53;;;;;;;13.68;10.18;;;12.90;15.50;;;;;;5023221;28;20200;-74
2022/03/11 12:38:25;;;;;;;14.45;10.00;;;12.70;15.40;;;;;;5026570;28;20591;-75
2022/03/11 12:40:55;;;;;;;13.50;10.50;;;12.60;15.30;;;;;;5017138;28;20196;-76
2022/03/11 12:43:23;;;;;;;16.77;9.80;;;12.90;15.50;;;;;;5019286;28;20263;-73
2022/03/11 12:45:51;;;;;;;15.00;10.02;;;12.90;15.50;;;;;;5020548;28;20679;-75